Mangham, Louisiana
Current Conditions -  °F | °C
As of 5:00 AM on Monday 22 Dec 2014 (Local Time) from KMLU Reporting Station
Haze Haze  
Wind Chill: 49°   Ceiling: 300
Heat Index: 49°   Visibility: 1.5mi
Dew Point: 49°   Wind: 3mph
Humidity: 100%   Direction: NA
Pressure: 29.83"   Gusts: NA
Location:  32.31°N, 91.77°W
Report Text: KMLU 221100Z AUTO VRB03KT 1 1/2SM BR OVC003 09/09 A2983 RMK AO2 T00940094
Loading
Personal Weather Stations






























Interactive Weather Map New forecast layout! Learn more

10-Day Weather Forecast

Advertisements
Track Severe Weather on mobile